createdAt,value
2023-03-03T00:00:52.765Z,1222
2023-03-03T00:02:52.875Z,1245
2023-03-03T00:03:52.734Z,927
2023-03-03T00:04:52.739Z,927
2023-03-03T00:05:52.747Z,1052
2023-03-03T00:07:52.885Z,1052
2023-03-03T00:08:52.770Z,1052
2023-03-03T00:09:52.735Z,1052
2023-03-03T00:10:52.795Z,1187
2023-03-03T00:12:52.891Z,1052
2023-03-03T00:13:52.742Z,1070
2023-03-03T00:14:52.763Z,1096
2023-03-03T00:15:52.757Z,1168
2023-03-03T00:17:52.890Z,1070
2023-03-03T00:18:52.746Z,1121
2023-03-03T00:19:52.751Z,1070
2023-03-03T00:20:52.739Z,1070
2023-03-03T00:22:52.948Z,1251
2023-03-03T00:23:52.747Z,975
2023-03-03T00:24:52.736Z,975
2023-03-03T00:25:52.695Z,1141
2023-03-03T00:27:52.898Z,975
2023-03-03T00:28:52.735Z,1242
2023-03-03T00:29:52.742Z,1135
2023-03-03T00:30:52.753Z,1087
2023-03-03T00:32:52.955Z,1251
2023-03-03T00:33:52.744Z,1087
2023-03-03T00:34:52.744Z,1087
2023-03-03T00:35:52.797Z,1087
2023-03-03T00:37:52.977Z,1087
2023-03-03T00:38:52.746Z,1087
2023-03-03T00:39:52.742Z,1150
2023-03-03T00:40:52.750Z,1087
2023-03-03T00:42:52.934Z,1087
2023-03-03T00:43:52.743Z,1087
2023-03-03T00:44:52.748Z,1087
2023-03-03T00:45:52.783Z,1087
2023-03-03T00:47:52.968Z,1232
2023-03-03T00:48:52.756Z,1087
2023-03-03T00:49:52.737Z,1087
2023-03-03T00:50:52.763Z,1099
2023-03-03T00:52:52.970Z,1251
2023-03-03T00:53:52.754Z,1245
2023-03-03T00:54:52.758Z,1099
2023-03-03T00:55:52.773Z,1087
2023-03-03T00:57:52.890Z,1163
2023-03-03T00:58:52.762Z,1087
2023-03-03T00:59:52.755Z,1087
2023-03-03T01:00:52.759Z,1087
2023-03-03T01:02:53.120Z,1087
2023-03-03T01:03:52.751Z,1087
2023-03-03T01:04:52.765Z,1157
2023-03-03T01:05:52.756Z,1087
2023-03-03T01:07:52.943Z,1087
2023-03-03T01:08:52.776Z,1132
2023-03-03T01:09:52.717Z,1261
2023-03-03T01:10:52.753Z,1279
2023-03-03T01:12:52.900Z,1129
2023-03-03T01:13:52.840Z,1087
2023-03-03T01:14:52.757Z,1200
2023-03-03T01:15:52.773Z,1087
2023-03-03T01:17:52.959Z,1229
2023-03-03T01:18:52.761Z,1124
2023-03-03T01:19:52.763Z,993
2023-03-03T01:20:52.755Z,993
2023-03-03T01:22:52.965Z,1099
2023-03-03T01:23:52.754Z,1275
2023-03-03T01:24:52.769Z,1200
2023-03-03T01:25:52.760Z,1107
2023-03-03T01:27:52.934Z,1238
2023-03-03T01:28:52.778Z,1238
2023-03-03T01:29:52.758Z,1107
2023-03-03T01:30:52.868Z,1107
2023-03-03T01:32:52.989Z,1107
2023-03-03T01:33:52.750Z,1265
2023-03-03T01:34:52.756Z,1107
2023-03-03T01:35:52.775Z,1107
2023-03-03T01:37:52.901Z,1229
2023-03-03T01:38:52.761Z,1087
2023-03-03T01:39:52.783Z,1087
2023-03-03T01:40:52.768Z,1229
2023-03-03T01:42:52.938Z,1087
2023-03-03T01:43:52.758Z,1245
2023-03-03T01:44:52.721Z,1087
2023-03-03T01:45:52.763Z,1087
2023-03-03T01:47:52.972Z,1242
2023-03-03T01:48:52.784Z,993
2023-03-03T01:49:52.791Z,993
2023-03-03T01:50:52.766Z,993
2023-03-03T01:52:52.985Z,1194
2023-03-03T01:53:52.797Z,913
2023-03-03T01:54:52.767Z,913
2023-03-03T01:55:52.794Z,913
2023-03-03T01:57:52.923Z,913
2023-03-03T01:58:52.765Z,1079
2023-03-03T01:59:52.762Z,1084
2023-03-03T02:00:52.773Z,913
2023-03-03T02:02:52.938Z,913
2023-03-03T02:03:52.765Z,1141
2023-03-03T02:04:52.770Z,1138
2023-03-03T02:05:52.767Z,944
2023-03-03T02:07:52.974Z,944
2023-03-03T02:08:52.789Z,849
2023-03-03T02:09:52.777Z,849
2023-03-03T02:10:52.798Z,856
2023-03-03T02:12:52.976Z,1132
2023-03-03T02:13:52.734Z,877
2023-03-03T02:14:52.775Z,890
2023-03-03T02:15:52.871Z,1160
2023-03-03T02:17:52.934Z,1197
2023-03-03T02:18:52.783Z,865
2023-03-03T02:19:52.786Z,1090
2023-03-03T02:20:52.777Z,1096
2023-03-03T02:22:52.931Z,932
2023-03-03T02:23:52.814Z,1124
2023-03-03T02:24:52.791Z,1099
2023-03-03T02:25:52.740Z,863
2023-03-03T02:27:52.923Z,870
2023-03-03T02:28:52.811Z,1135
2023-03-03T02:29:52.782Z,1157
2023-03-03T02:30:52.786Z,1168
2023-03-03T02:32:52.985Z,879
2023-03-03T02:33:52.788Z,1090
2023-03-03T02:34:52.812Z,792
2023-03-03T02:35:52.824Z,807
2023-03-03T02:37:52.984Z,1070
2023-03-03T02:38:52.815Z,886
2023-03-03T02:39:52.820Z,803
2023-03-03T02:40:52.780Z,877
2023-03-03T02:42:53.014Z,899
2023-03-03T02:43:52.787Z,1082
2023-03-03T02:44:52.793Z,1008
2023-03-03T02:45:52.816Z,821
2023-03-03T02:47:52.993Z,1067
2023-03-03T02:48:52.820Z,811
2023-03-03T02:49:52.779Z,811
2023-03-03T02:50:52.787Z,788
2023-03-03T02:52:52.997Z,800
2023-03-03T02:53:52.816Z,975
2023-03-03T02:54:52.827Z,718
2023-03-03T02:55:52.785Z,741
2023-03-03T02:57:52.929Z,745
2023-03-03T02:58:52.784Z,780
2023-03-03T02:59:52.780Z,772
2023-03-03T03:00:52.871Z,743
2023-03-03T03:02:52.929Z,955
2023-03-03T03:03:52.824Z,965
2023-03-03T03:04:52.841Z,718
2023-03-03T03:05:52.779Z,965
2023-03-03T03:07:53.016Z,690
2023-03-03T03:08:52.821Z,720
2023-03-03T03:09:52.790Z,714
2023-03-03T03:10:52.804Z,962
2023-03-03T03:12:52.933Z,747
2023-03-03T03:13:52.827Z,743
2023-03-03T03:14:52.796Z,776
2023-03-03T03:15:52.798Z,996
2023-03-03T03:17:53.006Z,770
2023-03-03T03:18:52.791Z,1029
2023-03-03T03:19:52.799Z,778
2023-03-03T03:20:52.792Z,786
2023-03-03T03:22:52.944Z,977
2023-03-03T03:23:52.801Z,892
2023-03-03T03:24:52.822Z,784
2023-03-03T03:25:52.796Z,782
2023-03-03T03:27:52.936Z,1018
2023-03-03T03:28:52.820Z,815
2023-03-03T03:29:52.794Z,813
2023-03-03T03:30:52.836Z,827
2023-03-03T03:32:52.959Z,800
2023-03-03T03:33:52.810Z,1096
2023-03-03T03:34:52.802Z,796
2023-03-03T03:35:52.864Z,786
2023-03-03T03:37:52.964Z,888
2023-03-03T03:38:52.812Z,986
2023-03-03T03:39:52.801Z,927
2023-03-03T03:40:52.819Z,1094
2023-03-03T03:42:53.003Z,1144
2023-03-03T03:43:52.803Z,899
2023-03-03T03:44:52.801Z,1190
2023-03-03T03:45:52.878Z,918
2023-03-03T03:47:52.961Z,972
2023-03-03T03:48:52.795Z,1055
2023-03-03T03:49:52.806Z,1052
2023-03-03T03:50:52.807Z,1293
2023-03-03T03:52:52.970Z,1079
2023-03-03T03:53:52.805Z,886
2023-03-03T03:54:52.816Z,1163
2023-03-03T03:55:52.803Z,918
2023-03-03T03:57:53.008Z,939
2023-03-03T03:58:52.836Z,957
2023-03-03T03:59:52.807Z,960
2023-03-03T04:00:52.819Z,1285
2023-03-03T04:02:53.082Z,1279
2023-03-03T04:03:52.812Z,888
2023-03-03T04:04:52.802Z,1084
2023-03-03T04:05:52.814Z,776
2023-03-03T04:07:52.967Z,1121
2023-03-03T04:08:52.807Z,932
2023-03-03T04:09:52.822Z,1203
2023-03-03T04:10:52.822Z,929
2023-03-03T04:12:52.976Z,1222
2023-03-03T04:13:52.815Z,1293
2023-03-03T04:14:52.813Z,1265
2023-03-03T04:15:52.853Z,1265
2023-03-03T04:17:52.976Z,1337
2023-03-03T04:18:52.812Z,1141
2023-03-03T04:19:52.818Z,1154
2023-03-03T04:20:52.819Z,1150
2023-03-03T04:22:53.020Z,757
2023-03-03T04:23:52.818Z,858
2023-03-03T04:24:52.826Z,881
2023-03-03T04:25:52.825Z,952
2023-03-03T04:27:53.065Z,1135
2023-03-03T04:28:52.822Z,1154
2023-03-03T04:29:52.819Z,908
2023-03-03T04:30:52.862Z,939
2023-03-03T04:32:52.969Z,934
2023-03-03T04:33:52.855Z,881
2023-03-03T04:34:58.570Z,1171
2023-03-03T04:35:52.835Z,858
2023-03-03T04:37:53.020Z,879
2023-03-03T04:38:52.822Z,981
2023-03-03T04:39:52.829Z,991
2023-03-03T04:40:52.834Z,1008
2023-03-03T04:42:52.978Z,906
2023-03-03T04:43:52.843Z,1135
2023-03-03T04:44:52.824Z,1209
2023-03-03T04:45:52.846Z,1255
2023-03-03T04:47:52.972Z,972
2023-03-03T04:48:52.830Z,910
2023-03-03T04:49:52.842Z,946
2023-03-03T04:50:52.842Z,1255
2023-03-03T04:52:52.983Z,1337
2023-03-03T04:53:52.826Z,1289
2023-03-03T04:54:52.845Z,1275
2023-03-03T04:55:52.832Z,895
2023-03-03T04:57:53.029Z,988
2023-03-03T04:58:52.867Z,1070
2023-03-03T04:59:52.828Z,1079
2023-03-03T05:00:52.836Z,1055
2023-03-03T05:02:53.035Z,1079
2023-03-03T05:03:52.788Z,1038
2023-03-03T05:04:52.845Z,986
2023-03-03T05:05:52.865Z,1279
2023-03-03T05:07:53.004Z,1415
2023-03-03T05:08:52.837Z,1113
2023-03-03T05:09:52.837Z,1079
2023-03-03T05:10:52.832Z,1296
2023-03-03T05:12:53.090Z,879
2023-03-03T05:13:52.826Z,1265
2023-03-03T05:14:52.825Z,1255
2023-03-03T05:15:52.869Z,1289
2023-03-03T05:17:52.977Z,970
2023-03-03T05:18:52.829Z,993
2023-03-03T05:19:52.796Z,925
2023-03-03T05:20:52.816Z,996
2023-03-03T05:22:53.062Z,1366
2023-03-03T05:23:52.831Z,1344
2023-03-03T05:24:52.829Z,1032
2023-03-03T05:25:52.844Z,1255
2023-03-03T05:27:53.028Z,1032
2023-03-03T05:28:52.834Z,829
2023-03-03T05:29:52.831Z,1307
2023-03-03T05:30:52.846Z,952
2023-03-03T05:32:52.979Z,1307
2023-03-03T05:33:52.829Z,1082
2023-03-03T05:34:52.837Z,1397
2023-03-03T05:35:52.861Z,1419
2023-03-03T05:37:53.079Z,1055
2023-03-03T05:38:52.845Z,1016
2023-03-03T05:39:52.826Z,1018
2023-03-03T05:40:52.834Z,1016
2023-03-03T05:42:53.070Z,1055
2023-03-03T05:43:52.872Z,1138
2023-03-03T05:44:52.835Z,1094
2023-03-03T05:45:52.834Z,1121
2023-03-03T05:47:52.996Z,1105
2023-03-03T05:48:52.837Z,1047
2023-03-03T05:49:52.834Z,1293
2023-03-03T05:50:52.843Z,1026
2023-03-03T05:52:53.069Z,986
2023-03-03T05:53:54.752Z,1003
2023-03-03T05:54:52.846Z,1296
2023-03-03T05:55:52.844Z,1310
2023-03-03T05:57:53.070Z,1307
2023-03-03T05:58:52.840Z,1076
2023-03-03T05:59:52.839Z,1381
2023-03-03T06:00:52.837Z,1354
2023-03-03T06:02:53.045Z,1052
2023-03-03T06:03:52.840Z,1344
2023-03-03T06:04:52.839Z,975
2023-03-03T06:05:52.870Z,1344
2023-03-03T06:07:53.065Z,1310
2023-03-03T06:08:52.875Z,975
2023-03-03T06:09:52.841Z,1344
2023-03-03T06:10:52.856Z,1389
2023-03-03T06:12:53.049Z,1324
2023-03-03T06:13:52.851Z,1026
2023-03-03T06:14:52.859Z,886
2023-03-03T06:15:52.879Z,1354
2023-03-03T06:17:53.051Z,1006
2023-03-03T06:18:52.851Z,1510
2023-03-03T06:19:52.861Z,1132
2023-03-03T06:20:52.857Z,1110
2023-03-03T06:22:52.998Z,1498
2023-03-03T06:23:52.822Z,1600
2023-03-03T06:24:52.858Z,1190
2023-03-03T06:25:52.814Z,1455
2023-03-03T06:27:53.001Z,1536
2023-03-03T06:28:52.855Z,1478
2023-03-03T06:29:52.850Z,1102
2023-03-03T06:30:52.858Z,1110
2023-03-03T06:32:53.057Z,1102
2023-03-03T06:33:52.878Z,1404
2023-03-03T06:34:52.917Z,1415
2023-03-03T06:35:52.898Z,1032
2023-03-03T06:37:52.999Z,1265
2023-03-03T06:38:52.882Z,1032
2023-03-03T06:39:52.868Z,1385
2023-03-03T06:40:52.859Z,1377
2023-03-03T06:42:53.000Z,1055
2023-03-03T06:43:52.862Z,986
2023-03-03T06:44:52.890Z,1174
2023-03-03T06:45:52.892Z,977
2023-03-03T06:47:53.060Z,1337
2023-03-03T06:48:52.863Z,957
2023-03-03T06:49:52.890Z,981
2023-03-03T06:50:52.855Z,1041
2023-03-03T06:52:53.021Z,1293
2023-03-03T06:53:52.889Z,962
2023-03-03T06:54:52.854Z,939
2023-03-03T06:55:52.872Z,1268
2023-03-03T06:57:53.008Z,1229
2023-03-03T06:58:52.891Z,827
2023-03-03T06:59:52.868Z,846
2023-03-03T07:00:53.014Z,800
2023-03-03T07:02:53.077Z,1171
2023-03-03T07:03:52.943Z,967
2023-03-03T07:04:52.898Z,965
2023-03-03T07:05:52.923Z,1013
2023-03-03T07:07:53.072Z,1242
2023-03-03T07:08:52.867Z,1242
2023-03-03T07:09:52.881Z,1268
2023-03-03T07:10:52.903Z,1265
2023-03-03T07:12:53.107Z,1036
2023-03-03T07:13:52.843Z,923
2023-03-03T07:14:52.874Z,1206
2023-03-03T07:15:52.947Z,923
2023-03-03T07:17:53.089Z,874
2023-03-03T07:18:52.878Z,1200
2023-03-03T07:19:52.875Z,1171
2023-03-03T07:20:52.918Z,1197
2023-03-03T07:22:53.115Z,906
2023-03-03T07:23:52.911Z,1157
2023-03-03T07:24:53.239Z,1197
2023-03-03T07:25:52.878Z,899
2023-03-03T07:27:53.118Z,886
2023-03-03T07:28:52.948Z,1141
2023-03-03T07:29:52.879Z,1150
2023-03-03T07:30:52.947Z,712
2023-03-03T07:32:53.128Z,849
2023-03-03T07:33:52.902Z,913
2023-03-03T07:34:52.893Z,807
2023-03-03T07:35:52.923Z,1082
2023-03-03T07:37:53.052Z,1082
2023-03-03T07:38:52.885Z,800
2023-03-03T07:39:52.900Z,768
2023-03-03T07:40:52.922Z,944
2023-03-03T07:42:53.092Z,967
2023-03-03T07:43:52.924Z,821
2023-03-03T07:44:52.910Z,1058
2023-03-03T07:45:52.926Z,962
2023-03-03T07:47:53.066Z,827
2023-03-03T07:48:52.907Z,772
2023-03-03T07:49:52.918Z,757
2023-03-03T07:50:52.907Z,754
2023-03-03T07:52:53.119Z,764
2023-03-03T07:53:52.895Z,798
2023-03-03T07:54:52.908Z,748
2023-03-03T07:55:52.914Z,1082
2023-03-03T07:57:53.043Z,1058
2023-03-03T07:58:52.900Z,1070
2023-03-03T07:59:52.913Z,786
2023-03-03T08:00:52.977Z,1041
2023-03-03T08:02:53.111Z,665
2023-03-03T08:03:52.922Z,977
2023-03-03T08:04:53.145Z,737
2023-03-03T08:05:52.896Z,967
2023-03-03T08:07:53.115Z,939
2023-03-03T08:08:52.905Z,628
2023-03-03T08:09:52.917Z,611
2023-03-03T08:10:52.988Z,760
2023-03-03T08:12:53.060Z,649
2023-03-03T08:13:52.938Z,955
2023-03-03T08:14:52.970Z,714
2023-03-03T08:15:52.966Z,732
2023-03-03T08:17:53.160Z,842
2023-03-03T08:18:54.539Z,565
2023-03-03T08:19:53.797Z,890
2023-03-03T08:20:52.919Z,872
2023-03-03T08:22:53.221Z,874
2023-03-03T08:23:52.919Z,714
2023-03-03T08:24:52.892Z,700
2023-03-03T08:25:52.931Z,906
2023-03-03T08:27:53.117Z,913
2023-03-03T08:28:52.897Z,634
2023-03-03T08:29:52.895Z,998
2023-03-03T08:31:00.128Z,910
2023-03-03T08:32:53.147Z,698
2023-03-03T08:33:52.890Z,732
2023-03-03T08:34:52.896Z,988
2023-03-03T08:35:52.927Z,941
2023-03-03T08:37:53.097Z,682
2023-03-03T08:38:52.914Z,1049
2023-03-03T08:39:52.926Z,805
2023-03-03T08:40:52.861Z,813
2023-03-03T08:42:53.175Z,1044
2023-03-03T08:43:52.899Z,941
2023-03-03T08:44:52.909Z,708
2023-03-03T08:45:52.907Z,618
2023-03-03T08:47:53.053Z,690
2023-03-03T08:48:52.900Z,634
2023-03-03T08:49:52.925Z,852
2023-03-03T08:50:52.905Z,646
2023-03-03T08:52:53.102Z,890
2023-03-03T08:53:52.918Z,829
2023-03-03T08:54:52.931Z,620
2023-03-03T08:55:52.924Z,620
2023-03-03T08:57:53.101Z,762
2023-03-03T08:59:02.046Z,988
2023-03-03T08:59:52.944Z,1016
2023-03-03T09:00:52.929Z,671
2023-03-03T09:02:53.067Z,952
2023-03-03T09:03:52.909Z,879
2023-03-03T09:04:52.967Z,874
2023-03-03T09:05:52.937Z,659
2023-03-03T09:07:53.114Z,886
2023-03-03T09:08:52.936Z,739
2023-03-03T09:09:52.906Z,561
2023-03-03T09:10:52.934Z,554
2023-03-03T09:12:53.077Z,580
2023-03-03T09:13:52.906Z,807
2023-03-03T09:14:52.910Z,588
2023-03-03T09:15:52.964Z,573
2023-03-03T09:17:53.131Z,705
2023-03-03T09:18:52.918Z,536
2023-03-03T09:19:52.920Z,593
2023-03-03T09:20:52.954Z,764
2023-03-03T09:22:53.107Z,612
2023-03-03T09:23:52.981Z,578
2023-03-03T09:24:52.924Z,778
2023-03-03T09:25:52.928Z,590
2023-03-03T09:27:53.126Z,566
2023-03-03T09:28:52.911Z,515
2023-03-03T09:29:52.948Z,668
2023-03-03T09:30:52.923Z,554
2023-03-03T09:32:53.070Z,526
2023-03-03T09:33:52.914Z,545
2023-03-03T09:34:52.933Z,530
2023-03-03T09:35:53.007Z,698
2023-03-03T09:37:53.208Z,718
2023-03-03T09:38:52.924Z,570
2023-03-03T09:39:52.973Z,588
2023-03-03T09:40:52.969Z,621
2023-03-03T09:42:53.121Z,854
2023-03-03T09:43:52.923Z,573
2023-03-03T09:44:52.926Z,540
2023-03-03T09:45:52.938Z,602
2023-03-03T09:47:53.122Z,540
2023-03-03T09:48:52.937Z,554
2023-03-03T09:49:52.974Z,631
2023-03-03T09:50:52.955Z,551
2023-03-03T09:52:53.134Z,554
2023-03-03T09:53:52.923Z,827
2023-03-03T09:54:52.929Z,600
2023-03-03T09:55:52.982Z,813
2023-03-03T09:58:04.639Z,588
2023-03-03T09:58:52.959Z,748
2023-03-03T09:59:52.948Z,770
2023-03-03T10:00:52.963Z,754
2023-03-03T10:02:54.567Z,733
2023-03-03T10:03:53.002Z,640
2023-03-03T10:04:53.020Z,792
2023-03-03T10:05:53.080Z,833
2023-03-03T10:07:53.081Z,566
2023-03-03T10:08:52.929Z,562
2023-03-03T10:09:52.937Z,700
2023-03-03T10:10:53.339Z,707
2023-03-03T10:12:53.644Z,686
2023-03-03T10:13:52.950Z,792
2023-03-03T10:14:52.945Z,575
2023-03-03T10:15:52.953Z,569
2023-03-03T10:17:53.332Z,665
2023-03-03T10:18:53.110Z,748
2023-03-03T10:19:52.930Z,868
2023-03-03T10:20:53.492Z,665
2023-03-03T10:22:53.169Z,570
2023-03-03T10:23:52.964Z,842
2023-03-03T10:24:52.932Z,674
2023-03-03T10:25:52.932Z,716
2023-03-03T10:27:53.590Z,655
2023-03-03T10:28:52.961Z,643
2023-03-03T10:29:52.935Z,600
2023-03-03T10:31:04.343Z,703
2023-03-03T10:32:53.294Z,778
2023-03-03T10:33:53.142Z,712
2023-03-03T10:34:52.948Z,607
2023-03-03T10:36:06.118Z,988
2023-03-03T10:37:53.145Z,572
2023-03-03T10:38:52.963Z,803
2023-03-03T10:39:52.968Z,597
2023-03-03T10:40:53.007Z,587
2023-03-03T10:42:53.191Z,772
2023-03-03T10:43:52.947Z,588
2023-03-03T10:44:52.953Z,581
2023-03-03T10:45:53.167Z,580
2023-03-03T10:47:53.142Z,739
2023-03-03T10:48:52.945Z,627
2023-03-03T10:49:52.957Z,625
2023-03-03T10:50:52.970Z,782
2023-03-03T10:52:53.182Z,640
2023-03-03T10:53:52.952Z,621
2023-03-03T10:54:52.982Z,631
2023-03-03T10:55:52.965Z,492
2023-03-03T10:57:53.156Z,492
2023-03-03T10:58:53.020Z,526
2023-03-03T10:59:52.976Z,526
2023-03-03T11:00:53.042Z,664
2023-03-03T11:02:53.166Z,528
2023-03-03T11:03:53.018Z,554
2023-03-03T11:04:52.986Z,554
2023-03-03T11:05:52.986Z,554
2023-03-03T11:07:53.179Z,554
2023-03-03T11:08:53.006Z,508
2023-03-03T11:09:52.990Z,508
2023-03-03T11:10:52.952Z,508
2023-03-03T11:12:53.156Z,633
2023-03-03T11:13:52.961Z,554
2023-03-03T11:14:52.963Z,682
2023-03-03T11:15:53.002Z,667
2023-03-03T11:17:53.158Z,554
2023-03-03T11:18:52.975Z,520
2023-03-03T11:19:52.973Z,508
2023-03-03T11:20:52.977Z,703
2023-03-03T11:22:53.197Z,508
2023-03-03T11:23:52.966Z,593
2023-03-03T11:24:52.990Z,483
2023-03-03T11:25:52.964Z,483
2023-03-03T11:27:53.157Z,519
2023-03-03T11:28:52.961Z,600
2023-03-03T11:29:52.971Z,762
2023-03-03T11:30:53.016Z,600
2023-03-03T11:32:53.348Z,600
2023-03-03T11:33:52.958Z,614
2023-03-03T11:34:52.963Z,757
2023-03-03T11:35:53.001Z,701
2023-03-03T11:37:53.205Z,614
2023-03-03T11:38:52.969Z,716
2023-03-03T11:39:52.992Z,634
2023-03-03T11:40:52.979Z,874
2023-03-03T11:42:53.116Z,680
2023-03-03T11:43:53.002Z,634
2023-03-03T11:44:52.972Z,554
2023-03-03T11:45:53.044Z,562
2023-03-03T11:47:53.112Z,554
2023-03-03T11:48:52.972Z,554
2023-03-03T11:49:52.970Z,554
2023-03-03T11:50:53.000Z,554
2023-03-03T11:52:53.241Z,554
2023-03-03T11:53:52.980Z,554
2023-03-03T11:54:53.052Z,554
2023-03-03T11:55:53.020Z,554
2023-03-03T11:57:53.174Z,554
2023-03-03T11:58:52.962Z,534
2023-03-03T11:59:52.966Z,534
2023-03-03T12:00:52.994Z,534
2023-03-03T12:02:53.132Z,534
2023-03-03T12:03:52.976Z,492
2023-03-03T12:04:53.083Z,552
2023-03-03T12:05:53.089Z,492
2023-03-03T12:07:53.187Z,492
2023-03-03T12:08:52.996Z,545
2023-03-03T12:09:52.986Z,552
2023-03-03T12:10:53.001Z,584
2023-03-03T12:12:53.191Z,564
2023-03-03T12:13:53.024Z,554
2023-03-03T12:14:53.037Z,554
2023-03-03T12:15:52.995Z,600
2023-03-03T12:17:53.138Z,554
2023-03-03T12:18:52.976Z,554
2023-03-03T12:19:53.023Z,554
2023-03-03T12:20:52.981Z,554
2023-03-03T12:23:04.579Z,554
2023-03-03T12:23:52.983Z,590
2023-03-03T12:24:53.101Z,590
2023-03-03T12:25:52.978Z,590
2023-03-03T12:27:55.016Z,656
2023-03-03T12:28:52.975Z,625
2023-03-03T12:29:53.013Z,625
2023-03-03T12:30:53.055Z,625
2023-03-03T12:32:53.195Z,625
2023-03-03T12:33:52.983Z,615
2023-03-03T12:34:53.073Z,615
2023-03-03T12:35:53.074Z,615
2023-03-03T12:37:53.195Z,615
2023-03-03T12:38:53.047Z,680
2023-03-03T12:39:53.034Z,680
2023-03-03T12:40:52.983Z,680
2023-03-03T12:42:53.191Z,680
2023-03-03T12:43:53.005Z,545
2023-03-03T12:44:53.088Z,545
2023-03-03T12:45:53.047Z,545
2023-03-03T12:47:53.136Z,545
2023-03-03T12:48:53.014Z,668
2023-03-03T12:50:06.390Z,668
2023-03-03T12:50:53.004Z,668
2023-03-03T12:52:53.180Z,668
2023-03-03T12:53:53.067Z,590
2023-03-03T12:54:53.003Z,590
2023-03-03T12:55:53.009Z,590
2023-03-03T12:57:53.200Z,590
2023-03-03T12:58:53.014Z,492
2023-03-03T12:59:53.042Z,492
2023-03-03T13:00:53.107Z,492
2023-03-03T13:02:53.200Z,492
2023-03-03T13:03:56.009Z,475
2023-03-03T13:04:53.006Z,475
2023-03-03T13:05:53.017Z,480
2023-03-03T13:07:53.268Z,475
2023-03-03T13:08:53.011Z,457
2023-03-03T13:09:53.024Z,457
2023-03-03T13:10:52.966Z,457
2023-03-03T13:12:53.165Z,457
2023-03-03T13:13:53.035Z,545
2023-03-03T13:14:53.027Z,545
2023-03-03T13:15:56.018Z,545
2023-03-03T13:17:53.205Z,545
2023-03-03T13:18:53.061Z,590
2023-03-03T13:19:53.023Z,590
2023-03-03T13:20:53.060Z,590
2023-03-03T13:22:53.242Z,590
2023-03-03T13:23:53.003Z,570
2023-03-03T13:24:52.998Z,570
2023-03-03T13:25:53.098Z,570
2023-03-03T13:27:53.169Z,570
2023-03-03T13:28:53.026Z,615
2023-03-03T13:29:53.010Z,615
2023-03-03T13:30:53.042Z,615
2023-03-03T13:32:53.257Z,615
2023-03-03T13:33:53.028Z,534
2023-03-03T13:34:53.115Z,534
2023-03-03T13:35:53.115Z,534
2023-03-03T13:37:53.273Z,534
2023-03-03T13:38:53.009Z,603
2023-03-03T13:39:53.037Z,603
2023-03-03T13:40:53.017Z,603
2023-03-03T13:42:53.156Z,603
2023-03-03T13:43:53.042Z,603
2023-03-03T13:44:53.028Z,603
2023-03-03T13:45:53.049Z,603
2023-03-03T13:47:53.237Z,603
2023-03-03T13:48:53.018Z,743
2023-03-03T13:49:53.043Z,743
2023-03-03T13:50:53.005Z,743
2023-03-03T13:52:53.236Z,743
2023-03-03T13:53:53.026Z,570
2023-03-03T13:54:53.031Z,570
2023-03-03T13:55:53.019Z,570
2023-03-03T13:57:53.201Z,570
2023-03-03T13:58:53.026Z,580
2023-03-03T13:59:53.039Z,580
2023-03-03T14:00:53.033Z,580
2023-03-03T14:02:53.251Z,580
2023-03-03T14:03:53.065Z,562
2023-03-03T14:04:53.068Z,562
2023-03-03T14:05:53.015Z,562
2023-03-03T14:07:53.231Z,674
2023-03-03T14:08:53.070Z,570
2023-03-03T14:09:53.018Z,570
2023-03-03T14:10:53.029Z,570
2023-03-03T14:12:53.218Z,570
2023-03-03T14:13:53.048Z,646
2023-03-03T14:14:53.034Z,646
2023-03-03T14:15:53.110Z,646
2023-03-03T14:17:53.251Z,646
2023-03-03T14:18:53.024Z,637
2023-03-03T14:19:53.054Z,637
2023-03-03T14:20:53.042Z,637
2023-03-03T14:22:53.263Z,637
2023-03-03T14:23:53.093Z,570
2023-03-03T14:24:53.051Z,570
2023-03-03T14:25:53.084Z,570
2023-03-03T14:27:53.241Z,570
2023-03-03T14:28:53.068Z,442
2023-03-03T14:29:53.026Z,442
2023-03-03T14:30:53.051Z,442
2023-03-03T14:32:53.256Z,442
2023-03-03T14:33:53.034Z,562
2023-03-03T14:34:53.059Z,562
2023-03-03T14:35:53.133Z,562
2023-03-03T14:37:53.198Z,562
2023-03-03T14:38:53.031Z,534
2023-03-03T14:39:53.057Z,534
2023-03-03T14:40:53.078Z,534
2023-03-03T14:42:53.241Z,534
2023-03-03T14:43:53.038Z,562
2023-03-03T14:44:53.074Z,562
2023-03-03T14:45:53.068Z,562
2023-03-03T14:47:53.251Z,562
2023-03-03T14:48:53.069Z,518
2023-03-03T14:49:53.076Z,518
2023-03-03T14:50:53.049Z,518
2023-03-03T14:52:53.188Z,518
2023-03-03T14:53:53.049Z,603
2023-03-03T14:54:53.040Z,603
2023-03-03T14:55:53.083Z,603
2023-03-03T14:57:53.267Z,603
2023-03-03T14:58:53.042Z,603
2023-03-03T14:59:53.048Z,603
2023-03-03T15:00:53.056Z,603
2023-03-03T15:02:53.269Z,603
2023-03-03T15:03:53.041Z,656
2023-03-03T15:04:53.085Z,656
2023-03-03T15:05:53.045Z,656
2023-03-03T15:07:53.281Z,656
2023-03-03T15:08:53.057Z,603
2023-03-03T15:09:53.070Z,603
2023-03-03T15:10:53.074Z,603
2023-03-03T15:12:53.261Z,603
2023-03-03T15:13:53.051Z,615
2023-03-03T15:14:53.049Z,615
2023-03-03T15:15:53.124Z,615
2023-03-03T15:17:53.256Z,615
2023-03-03T15:18:53.056Z,668
2023-03-03T15:19:53.012Z,668
2023-03-03T15:20:53.053Z,668
2023-03-03T15:22:53.198Z,668
2023-03-03T15:23:53.056Z,668
2023-03-03T15:24:53.050Z,668
2023-03-03T15:25:54.634Z,668
2023-03-03T15:27:53.193Z,668
2023-03-03T15:28:53.047Z,829
2023-03-03T15:29:53.057Z,829
2023-03-03T15:30:53.080Z,829
2023-03-03T15:32:53.469Z,829
2023-03-03T15:33:53.052Z,694
2023-03-03T15:34:53.043Z,694
2023-03-03T15:35:53.032Z,694
2023-03-03T15:37:53.201Z,694
2023-03-03T15:38:53.100Z,705
2023-03-03T15:39:53.060Z,705
2023-03-03T15:40:53.050Z,705
2023-03-03T15:42:53.256Z,705
2023-03-03T15:43:53.047Z,668
2023-03-03T15:44:53.087Z,668
2023-03-03T15:45:53.076Z,668
2023-03-03T15:47:53.347Z,668
2023-03-03T15:48:53.058Z,656
2023-03-03T15:49:53.094Z,656
2023-03-03T15:50:53.062Z,656
2023-03-03T15:52:53.246Z,656
2023-03-03T15:53:53.084Z,668
2023-03-03T15:54:53.059Z,668
2023-03-03T15:55:53.081Z,668
2023-03-03T15:57:53.269Z,668
2023-03-03T15:58:53.059Z,668
2023-03-03T15:59:53.079Z,668
2023-03-03T16:00:53.059Z,668
2023-03-03T16:02:53.238Z,668
2023-03-03T16:03:53.058Z,668
2023-03-03T16:04:53.057Z,668
2023-03-03T16:05:53.062Z,668
2023-03-03T16:07:53.234Z,668
2023-03-03T16:08:53.063Z,680
2023-03-03T16:09:53.063Z,680
2023-03-03T16:10:53.065Z,680
2023-03-03T16:12:53.284Z,680
2023-03-03T16:13:53.104Z,770
2023-03-03T16:14:53.052Z,770
2023-03-03T16:15:53.082Z,770
2023-03-03T16:17:53.259Z,770
2023-03-03T16:18:53.069Z,782
2023-03-03T16:19:53.069Z,782
2023-03-03T16:20:53.071Z,782
2023-03-03T16:22:53.285Z,782
2023-03-03T16:23:53.093Z,854
2023-03-03T16:24:53.067Z,854
2023-03-03T16:25:53.098Z,854
2023-03-03T16:27:53.293Z,854
2023-03-03T16:28:53.154Z,920
2023-03-03T16:29:53.097Z,920
2023-03-03T16:30:53.087Z,920
2023-03-03T16:32:53.273Z,920
2023-03-03T16:33:53.075Z,770
2023-03-03T16:34:53.083Z,770
2023-03-03T16:35:53.134Z,770
2023-03-03T16:37:53.279Z,770
2023-03-03T16:38:53.085Z,760
2023-03-03T16:39:53.108Z,760
2023-03-03T16:40:53.073Z,760
2023-03-03T16:42:53.295Z,760
2023-03-03T16:43:53.083Z,770
2023-03-03T16:44:53.090Z,770
2023-03-03T16:45:53.126Z,770
2023-03-03T16:47:53.317Z,770
2023-03-03T16:48:53.100Z,760
2023-03-03T16:49:53.085Z,760
2023-03-03T16:50:53.118Z,760
2023-03-03T16:52:53.304Z,760
2023-03-03T16:53:53.078Z,770
2023-03-03T16:54:53.082Z,770
2023-03-03T16:55:53.082Z,770
2023-03-03T16:57:53.233Z,770
2023-03-03T16:58:53.112Z,770
2023-03-03T16:59:53.094Z,770
2023-03-03T17:00:53.169Z,770
2023-03-03T17:02:53.322Z,770